sensor_id;sensor_type;location;lat;lon;timestamp;temperature;humidity
4647;DHT22;2336;47.822;7.564;2023-04-24T00:01:33;11.70;99.90
4647;DHT22;2336;47.822;7.564;2023-04-24T00:04:02;11.60;99.90
4647;DHT22;2336;47.822;7.564;2023-04-24T00:06:30;11.70;99.90
4647;DHT22;2336;47.822;7.564;2023-04-24T00:08:58;11.70;99.90
4647;DHT22;2336;47.822;7.564;2023-04-24T00:11:25;11.70;99.90
4647;DHT22;2336;47.822;7.564;2023-04-24T00:13:52;11.70;99.90
4647;DHT22;2336;47.822;7.564;2023-04-24T00:16:19;11.70;99.90
4647;DHT22;2336;47.822;7.564;2023-04-24T00:18:46;11.70;99.90
4647;DHT22;2336;47.822;7.564;2023-04-24T00:21:13;11.70;99.90
4647;DHT22;2336;47.822;7.564;2023-04-24T00:23:41;11.70;99.90
4647;DHT22;2336;47.822;7.564;2023-04-24T00:26:09;11.70;99.90
4647;DHT22;2336;47.822;7.564;2023-04-24T00:28:36;11.80;99.90
4647;DHT22;2336;47.822;7.564;2023-04-24T00:31:02;11.70;99.90
4647;DHT22;2336;47.822;7.564;2023-04-24T00:33:29;11.70;99.90
4647;DHT22;2336;47.822;7.564;2023-04-24T00:35:56;11.80;99.90
4647;DHT22;2336;47.822;7.564;2023-04-24T00:38:23;11.80;99.90
4647;DHT22;2336;47.822;7.564;2023-04-24T00:40:51;11.80;99.90
4647;DHT22;2336;47.822;7.564;2023-04-24T00:43:19;11.80;99.90
4647;DHT22;2336;47.822;7.564;2023-04-24T00:45:46;11.80;99.90
4647;DHT22;2336;47.822;7.564;2023-04-24T00:48:13;11.80;99.90
4647;DHT22;2336;47.822;7.564;2023-04-24T00:50:40;11.70;99.90
4647;DHT22;2336;47.822;7.564;2023-04-24T00:53:08;11.70;99.90
4647;DHT22;2336;47.822;7.564;2023-04-24T00:55:35;11.70;99.90
4647;DHT22;2336;47.822;7.564;2023-04-24T00:58:04;11.70;99.90
4647;DHT22;2336;47.822;7.564;2023-04-24T01:00:31;11.70;99.90
4647;DHT22;2336;47.822;7.564;2023-04-24T01:02:59;11.70;99.90
4647;DHT22;2336;47.822;7.564;2023-04-24T01:05:28;11.70;99.90
4647;DHT22;2336;47.822;7.564;2023-04-24T01:07:55;11.70;99.90
4647;DHT22;2336;47.822;7.564;2023-04-24T01:10:24;11.70;99.90
4647;DHT22;2336;47.822;7.564;2023-04-24T01:12:51;11.70;99.90
4647;DHT22;2336;47.822;7.564;2023-04-24T01:15:20;11.80;99.90
4647;DHT22;2336;47.822;7.564;2023-04-24T01:17:47;11.70;99.90
4647;DHT22;2336;47.822;7.564;2023-04-24T01:20:14;11.70;99.90
4647;DHT22;2336;47.822;7.564;2023-04-24T01:22:42;11.70;99.90
4647;DHT22;2336;47.822;7.564;2023-04-24T01:25:10;11.70;99.90
4647;DHT22;2336;47.822;7.564;2023-04-24T01:27:37;11.70;99.90
4647;DHT22;2336;47.822;7.564;2023-04-24T01:30:05;11.70;99.90
4647;DHT22;2336;47.822;7.564;2023-04-24T01:32:32;11.70;99.90
4647;DHT22;2336;47.822;7.564;2023-04-24T01:34:59;11.70;99.90
4647;DHT22;2336;47.822;7.564;2023-04-24T01:37:26;11.70;99.90
4647;DHT22;2336;47.822;7.564;2023-04-24T01:39:54;11.70;99.90
4647;DHT22;2336;47.822;7.564;2023-04-24T01:42:21;11.70;99.90
4647;DHT22;2336;47.822;7.564;2023-04-24T01:44:48;11.70;99.90
4647;DHT22;2336;47.822;7.564;2023-04-24T01:47:15;11.70;99.90
4647;DHT22;2336;47.822;7.564;2023-04-24T01:49:42;11.70;99.90
4647;DHT22;2336;47.822;7.564;2023-04-24T01:52:13;11.70;99.90
4647;DHT22;2336;47.822;7.564;2023-04-24T01:54:39;11.60;99.90
4647;DHT22;2336;47.822;7.564;2023-04-24T01:57:07;11.60;99.90
4647;DHT22;2336;47.822;7.564;2023-04-24T01:59:35;11.60;99.90
4647;DHT22;2336;47.822;7.564;2023-04-24T02:02:02;11.60;99.90
4647;DHT22;2336;47.822;7.564;2023-04-24T02:04:29;11.60;99.90
4647;DHT22;2336;47.822;7.564;2023-04-24T02:06:55;11.50;99.90
4647;DHT22;2336;47.822;7.564;2023-04-24T02:09:22;11.50;99.90
4647;DHT22;2336;47.822;7.564;2023-04-24T02:11:49;11.50;99.90
4647;DHT22;2336;47.822;7.564;2023-04-24T02:14:17;11.60;99.90
4647;DHT22;2336;47.822;7.564;2023-04-24T02:16:44;11.60;99.90
4647;DHT22;2336;47.822;7.564;2023-04-24T02:19:11;11.50;99.90
4647;DHT22;2336;47.822;7.564;2023-04-24T02:21:37;11.50;99.90
4647;DHT22;2336;47.822;7.564;2023-04-24T02:24:04;11.50;99.90
4647;DHT22;2336;47.822;7.564;2023-04-24T02:26:31;11.50;99.90
4647;DHT22;2336;47.822;7.564;2023-04-24T02:28:58;11.50;99.90
4647;DHT22;2336;47.822;7.564;2023-04-24T02:31:26;11.50;99.90
4647;DHT22;2336;47.822;7.564;2023-04-24T02:33:53;11.50;99.90
4647;DHT22;2336;47.822;7.564;2023-04-24T02:36:19;11.50;99.90
4647;DHT22;2336;47.822;7.564;2023-04-24T02:38:46;11.50;99.90
4647;DHT22;2336;47.822;7.564;2023-04-24T02:41:13;11.60;99.90
4647;DHT22;2336;47.822;7.564;2023-04-24T02:43:39;11.50;99.90
4647;DHT22;2336;47.822;7.564;2023-04-24T02:46:06;11.50;99.90
4647;DHT22;2336;47.822;7.564;2023-04-24T02:48:34;11.50;99.90
4647;DHT22;2336;47.822;7.564;2023-04-24T02:51:01;11.60;99.90
4647;DHT22;2336;47.822;7.564;2023-04-24T02:53:28;11.50;99.90
4647;DHT22;2336;47.822;7.564;2023-04-24T02:55:55;11.50;99.90
4647;DHT22;2336;47.822;7.564;2023-04-24T02:58:22;11.50;99.90
4647;DHT22;2336;47.822;7.564;2023-04-24T03:00:49;11.50;99.90
4647;DHT22;2336;47.822;7.564;2023-04-24T03:03:19;11.50;99.90
4647;DHT22;2336;47.822;7.564;2023-04-24T03:05:47;11.50;99.90
4647;DHT22;2336;47.822;7.564;2023-04-24T03:08:14;11.50;99.90
4647;DHT22;2336;47.822;7.564;2023-04-24T03:10:40;11.50;99.90
4647;DHT22;2336;47.822;7.564;2023-04-24T03:13:07;11.50;99.90
4647;DHT22;2336;47.822;7.564;2023-04-24T03:15:34;11.40;99.90
4647;DHT22;2336;47.822;7.564;2023-04-24T03:18:01;11.40;99.90
4647;DHT22;2336;47.822;7.564;2023-04-24T03:20:28;11.40;99.90
4647;DHT22;2336;47.822;7.564;2023-04-24T03:22:56;11.40;99.90
4647;DHT22;2336;47.822;7.564;2023-04-24T03:25:22;11.40;99.90
4647;DHT22;2336;47.822;7.564;2023-04-24T03:27:49;11.40;99.90
4647;DHT22;2336;47.822;7.564;2023-04-24T03:30:16;11.40;99.90
4647;DHT22;2336;47.822;7.564;2023-04-24T03:32:43;11.40;99.90
4647;DHT22;2336;47.822;7.564;2023-04-24T03:35:10;11.40;99.90
4647;DHT22;2336;47.822;7.564;2023-04-24T03:37:36;11.40;99.90
4647;DHT22;2336;47.822;7.564;2023-04-24T03:40:06;11.40;99.90
4647;DHT22;2336;47.822;7.564;2023-04-24T03:42:33;11.40;99.90
4647;DHT22;2336;47.822;7.564;2023-04-24T03:45:00;11.40;99.90
4647;DHT22;2336;47.822;7.564;2023-04-24T03:47:26;11.30;99.90
4647;DHT22;2336;47.822;7.564;2023-04-24T03:49:53;11.30;99.90
4647;DHT22;2336;47.822;7.564;2023-04-24T03:52:21;11.40;99.90
4647;DHT22;2336;47.822;7.564;2023-04-24T03:54:48;11.30;99.90
4647;DHT22;2336;47.822;7.564;2023-04-24T03:57:16;11.30;99.90
4647;DHT22;2336;47.822;7.564;2023-04-24T03:59:42;11.30;99.90
4647;DHT22;2336;47.822;7.564;2023-04-24T04:02:09;11.20;99.90
4647;DHT22;2336;47.822;7.564;2023-04-24T04:04:36;11.20;99.90
4647;DHT22;2336;47.822;7.564;2023-04-24T04:07:02;11.20;99.90
4647;DHT22;2336;47.822;7.564;2023-04-24T04:09:30;11.20;99.90
4647;DHT22;2336;47.822;7.564;2023-04-24T04:11:58;11.10;99.90
4647;DHT22;2336;47.822;7.564;2023-04-24T04:14:27;11.10;99.90
4647;DHT22;2336;47.822;7.564;2023-04-24T04:16:54;11.10;99.90
4647;DHT22;2336;47.822;7.564;2023-04-24T04:19:20;11.10;99.90
4647;DHT22;2336;47.822;7.564;2023-04-24T04:21:47;11.10;99.90
4647;DHT22;2336;47.822;7.564;2023-04-24T04:24:18;11.10;99.90
4647;DHT22;2336;47.822;7.564;2023-04-24T04:26:46;11.10;99.90
4647;DHT22;2336;47.822;7.564;2023-04-24T04:29:12;11.00;99.90
4647;DHT22;2336;47.822;7.564;2023-04-24T04:31:42;11.10;99.90
4647;DHT22;2336;47.822;7.564;2023-04-24T04:34:08;11.00;99.90
4647;DHT22;2336;47.822;7.564;2023-04-24T04:36:35;11.10;99.90
4647;DHT22;2336;47.822;7.564;2023-04-24T04:39:02;11.00;99.90
4647;DHT22;2336;47.822;7.564;2023-04-24T04:41:29;11.00;99.90
4647;DHT22;2336;47.822;7.564;2023-04-24T04:43:56;11.00;99.90
4647;DHT22;2336;47.822;7.564;2023-04-24T04:46:24;10.90;99.90
4647;DHT22;2336;47.822;7.564;2023-04-24T04:48:52;10.90;99.90
4647;DHT22;2336;47.822;7.564;2023-04-24T04:51:19;10.90;99.90
4647;DHT22;2336;47.822;7.564;2023-04-24T04:53:46;10.90;99.90
4647;DHT22;2336;47.822;7.564;2023-04-24T04:56:13;10.90;99.90
4647;DHT22;2336;47.822;7.564;2023-04-24T04:58:39;10.90;99.90
4647;DHT22;2336;47.822;7.564;2023-04-24T05:01:06;10.90;99.90
4647;DHT22;2336;47.822;7.564;2023-04-24T05:03:33;10.90;99.90
4647;DHT22;2336;47.822;7.564;2023-04-24T05:06:01;10.80;99.90
4647;DHT22;2336;47.822;7.564;2023-04-24T05:08:28;10.80;99.90
4647;DHT22;2336;47.822;7.564;2023-04-24T05:10:55;10.80;99.90
4647;DHT22;2336;47.822;7.564;2023-04-24T05:13:22;10.80;99.90
4647;DHT22;2336;47.822;7.564;2023-04-24T05:15:48;10.80;99.90
4647;DHT22;2336;47.822;7.564;2023-04-24T05:18:15;10.80;99.90
4647;DHT22;2336;47.822;7.564;2023-04-24T05:20:42;10.80;99.90
4647;DHT22;2336;47.822;7.564;2023-04-24T05:23:10;10.80;99.90
4647;DHT22;2336;47.822;7.564;2023-04-24T05:25:37;10.70;99.90
4647;DHT22;2336;47.822;7.564;2023-04-24T05:28:05;10.70;99.90
4647;DHT22;2336;47.822;7.564;2023-04-24T05:30:32;10.80;99.90
4647;DHT22;2336;47.822;7.564;2023-04-24T05:32:59;10.70;99.90
4647;DHT22;2336;47.822;7.564;2023-04-24T05:35:25;10.70;99.90
4647;DHT22;2336;47.822;7.564;2023-04-24T05:37:52;10.70;99.90
4647;DHT22;2336;47.822;7.564;2023-04-24T05:40:20;10.70;99.90
4647;DHT22;2336;47.822;7.564;2023-04-24T05:42:47;10.80;99.90
4647;DHT22;2336;47.822;7.564;2023-04-24T05:45:14;10.80;99.90
4647;DHT22;2336;47.822;7.564;2023-04-24T05:47:42;10.80;99.90
4647;DHT22;2336;47.822;7.564;2023-04-24T05:50:10;10.80;99.90
4647;DHT22;2336;47.822;7.564;2023-04-24T05:52:37;10.80;99.90
4647;DHT22;2336;47.822;7.564;2023-04-24T05:55:04;10.80;99.90
4647;DHT22;2336;47.822;7.564;2023-04-24T05:57:33;10.80;99.90
4647;DHT22;2336;47.822;7.564;2023-04-24T05:59:59;10.80;99.90
4647;DHT22;2336;47.822;7.564;2023-04-24T06:02:26;10.80;99.90
4647;DHT22;2336;47.822;7.564;2023-04-24T06:04:57;10.80;99.90
4647;DHT22;2336;47.822;7.564;2023-04-24T06:07:24;10.80;99.90
4647;DHT22;2336;47.822;7.564;2023-04-24T06:09:51;10.80;99.90
4647;DHT22;2336;47.822;7.564;2023-04-24T06:12:18;10.80;99.90
4647;DHT22;2336;47.822;7.564;2023-04-24T06:14:46;10.70;99.90
4647;DHT22;2336;47.822;7.564;2023-04-24T06:17:13;10.70;99.90
4647;DHT22;2336;47.822;7.564;2023-04-24T06:19:40;10.70;99.90
4647;DHT22;2336;47.822;7.564;2023-04-24T06:22:06;10.60;99.90
4647;DHT22;2336;47.822;7.564;2023-04-24T06:24:34;10.60;99.90
4647;DHT22;2336;47.822;7.564;2023-04-24T06:27:01;10.70;99.90
4647;DHT22;2336;47.822;7.564;2023-04-24T06:29:28;10.60;99.90
4647;DHT22;2336;47.822;7.564;2023-04-24T06:31:56;10.70;99.90
4647;DHT22;2336;47.822;7.564;2023-04-24T06:34:22;10.60;99.90
4647;DHT22;2336;47.822;7.564;2023-04-24T06:36:49;10.70;99.90
4647;DHT22;2336;47.822;7.564;2023-04-24T06:39:16;10.70;99.90
4647;DHT22;2336;47.822;7.564;2023-04-24T06:41:43;10.70;99.90
4647;DHT22;2336;47.822;7.564;2023-04-24T06:44:09;10.80;99.90
4647;DHT22;2336;47.822;7.564;2023-04-24T06:46:36;10.70;99.90
4647;DHT22;2336;47.822;7.564;2023-04-24T06:49:04;10.70;99.90
4647;DHT22;2336;47.822;7.564;2023-04-24T06:51:31;10.70;99.90
4647;DHT22;2336;47.822;7.564;2023-04-24T06:53:58;10.60;99.90
4647;DHT22;2336;47.822;7.564;2023-04-24T06:56:26;10.50;99.90
4647;DHT22;2336;47.822;7.564;2023-04-24T06:58:54;10.50;99.90
4647;DHT22;2336;47.822;7.564;2023-04-24T07:01:20;10.50;99.90
4647;DHT22;2336;47.822;7.564;2023-04-24T07:03:47;10.60;99.90
4647;DHT22;2336;47.822;7.564;2023-04-24T07:06:15;10.60;99.90
4647;DHT22;2336;47.822;7.564;2023-04-24T07:08:44;10.60;99.90
4647;DHT22;2336;47.822;7.564;2023-04-24T07:11:10;10.70;99.90
4647;DHT22;2336;47.822;7.564;2023-04-24T07:13:37;10.70;99.90
4647;DHT22;2336;47.822;7.564;2023-04-24T07:16:07;10.80;99.90
4647;DHT22;2336;47.822;7.564;2023-04-24T07:18:34;10.80;99.90
4647;DHT22;2336;47.822;7.564;2023-04-24T07:21:01;10.90;99.90
4647;DHT22;2336;47.822;7.564;2023-04-24T07:23:30;10.90;99.90
4647;DHT22;2336;47.822;7.564;2023-04-24T07:25:57;10.90;99.90
4647;DHT22;2336;47.822;7.564;2023-04-24T07:28:24;10.90;99.90
4647;DHT22;2336;47.822;7.564;2023-04-24T07:30:51;11.00;99.90
4647;DHT22;2336;47.822;7.564;2023-04-24T07:33:19;11.00;99.90
4647;DHT22;2336;47.822;7.564;2023-04-24T07:35:46;11.20;99.90
4647;DHT22;2336;47.822;7.564;2023-04-24T07:38:13;11.40;99.90
4647;DHT22;2336;47.822;7.564;2023-04-24T07:40:41;11.60;99.90
4647;DHT22;2336;47.822;7.564;2023-04-24T07:43:08;11.70;99.90
4647;DHT22;2336;47.822;7.564;2023-04-24T07:45:35;11.80;99.90
4647;DHT22;2336;47.822;7.564;2023-04-24T07:48:03;11.80;99.90
4647;DHT22;2336;47.822;7.564;2023-04-24T07:50:29;12.00;99.90
4647;DHT22;2336;47.822;7.564;2023-04-24T07:52:56;12.00;99.90
4647;DHT22;2336;47.822;7.564;2023-04-24T07:55:23;12.00;99.90
4647;DHT22;2336;47.822;7.564;2023-04-24T07:57:51;12.10;99.90
4647;DHT22;2336;47.822;7.564;2023-04-24T08:00:18;12.10;99.90
4647;DHT22;2336;47.822;7.564;2023-04-24T08:02:45;12.10;99.90
4647;DHT22;2336;47.822;7.564;2023-04-24T08:05:12;12.10;99.90
4647;DHT22;2336;47.822;7.564;2023-04-24T08:07:38;12.10;99.90
4647;DHT22;2336;47.822;7.564;2023-04-24T08:10:09;12.10;99.90
4647;DHT22;2336;47.822;7.564;2023-04-24T08:12:37;12.10;99.90
4647;DHT22;2336;47.822;7.564;2023-04-24T08:15:06;12.20;99.90
4647;DHT22;2336;47.822;7.564;2023-04-24T08:17:33;12.30;99.90
4647;DHT22;2336;47.822;7.564;2023-04-24T08:20:00;12.40;99.90
4647;DHT22;2336;47.822;7.564;2023-04-24T08:22:28;12.60;99.90
4647;DHT22;2336;47.822;7.564;2023-04-24T08:24:55;12.70;99.90
4647;DHT22;2336;47.822;7.564;2023-04-24T08:27:22;12.70;99.90
4647;DHT22;2336;47.822;7.564;2023-04-24T08:29:49;12.80;99.90
4647;DHT22;2336;47.822;7.564;2023-04-24T08:32:17;13.00;99.90
4647;DHT22;2336;47.822;7.564;2023-04-24T08:34:44;13.00;99.90
4647;DHT22;2336;47.822;7.564;2023-04-24T08:37:10;12.90;99.90
4647;DHT22;2336;47.822;7.564;2023-04-24T08:39:37;12.90;99.90
4647;DHT22;2336;47.822;7.564;2023-04-24T08:42:05;12.80;99.90
4647;DHT22;2336;47.822;7.564;2023-04-24T08:44:33;12.90;99.90
4647;DHT22;2336;47.822;7.564;2023-04-24T08:47:02;13.00;99.90
4647;DHT22;2336;47.822;7.564;2023-04-24T08:49:30;12.90;99.90
4647;DHT22;2336;47.822;7.564;2023-04-24T08:51:57;12.90;99.90
4647;DHT22;2336;47.822;7.564;2023-04-24T08:54:25;12.90;99.90
4647;DHT22;2336;47.822;7.564;2023-04-24T08:56:53;12.90;99.90
4647;DHT22;2336;47.822;7.564;2023-04-24T08:59:22;13.00;99.90
4647;DHT22;2336;47.822;7.564;2023-04-24T09:01:51;13.00;99.90
4647;DHT22;2336;47.822;7.564;2023-04-24T09:04:20;13.00;99.90
4647;DHT22;2336;47.822;7.564;2023-04-24T09:06:51;12.90;99.90
4647;DHT22;2336;47.822;7.564;2023-04-24T09:09:18;13.00;99.90
4647;DHT22;2336;47.822;7.564;2023-04-24T09:11:45;13.10;99.90
4647;DHT22;2336;47.822;7.564;2023-04-24T09:14:12;13.10;99.90
4647;DHT22;2336;47.822;7.564;2023-04-24T09:16:40;13.20;99.90
4647;DHT22;2336;47.822;7.564;2023-04-24T09:19:06;13.50;99.90
4647;DHT22;2336;47.822;7.564;2023-04-24T09:21:34;13.60;99.90
4647;DHT22;2336;47.822;7.564;2023-04-24T09:24:05;13.60;99.90
4647;DHT22;2336;47.822;7.564;2023-04-24T09:26:35;13.50;99.90
4647;DHT22;2336;47.822;7.564;2023-04-24T09:29:02;13.40;99.90
4647;DHT22;2336;47.822;7.564;2023-04-24T09:31:30;13.50;99.90
4647;DHT22;2336;47.822;7.564;2023-04-24T09:33:58;13.20;99.80
4647;DHT22;2336;47.822;7.564;2023-04-24T09:36:29;13.30;99.20
4647;DHT22;2336;47.822;7.564;2023-04-24T09:38:59;13.10;98.10
4647;DHT22;2336;47.822;7.564;2023-04-24T09:41:27;12.80;97.70
4647;DHT22;2336;47.822;7.564;2023-04-24T09:43:55;12.70;97.20
4647;DHT22;2336;47.822;7.564;2023-04-24T09:46:29;12.70;96.50
4647;DHT22;2336;47.822;7.564;2023-04-24T09:48:56;12.80;97.60
4647;DHT22;2336;47.822;7.564;2023-04-24T09:51:33;12.90;96.20
4647;DHT22;2336;47.822;7.564;2023-04-24T09:54:01;12.90;97.20
4647;DHT22;2336;47.822;7.564;2023-04-24T09:56:32;13.10;98.00
4647;DHT22;2336;47.822;7.564;2023-04-24T09:59:04;13.20;96.10
4647;DHT22;2336;47.822;7.564;2023-04-24T10:01:31;13.10;96.90
4647;DHT22;2336;47.822;7.564;2023-04-24T10:03:58;13.10;95.70
4647;DHT22;2336;47.822;7.564;2023-04-24T10:06:32;13.10;96.20
4647;DHT22;2336;47.822;7.564;2023-04-24T10:08:59;12.80;95.40
4647;DHT22;2336;47.822;7.564;2023-04-24T10:11:28;12.80;96.90
4647;DHT22;2336;47.822;7.564;2023-04-24T10:13:56;12.80;96.40
4647;DHT22;2336;47.822;7.564;2023-04-24T10:16:24;12.70;95.80
4647;DHT22;2336;47.822;7.564;2023-04-24T10:18:52;12.80;97.10
4647;DHT22;2336;47.822;7.564;2023-04-24T10:21:19;12.80;95.80
4647;DHT22;2336;47.822;7.564;2023-04-24T10:23:47;12.90;96.60
4647;DHT22;2336;47.822;7.564;2023-04-24T10:26:16;13.20;96.70
4647;DHT22;2336;47.822;7.564;2023-04-24T10:28:46;13.40;95.00
4647;DHT22;2336;47.822;7.564;2023-04-24T10:31:14;13.10;96.20
4647;DHT22;2336;47.822;7.564;2023-04-24T10:33:42;13.10;95.80
4647;DHT22;2336;47.822;7.564;2023-04-24T10:36:10;13.30;96.60
4647;DHT22;2336;47.822;7.564;2023-04-24T10:38:39;13.20;96.20
4647;DHT22;2336;47.822;7.564;2023-04-24T10:41:07;13.10;96.50
4647;DHT22;2336;47.822;7.564;2023-04-24T10:43:35;12.90;96.60
4647;DHT22;2336;47.822;7.564;2023-04-24T10:46:04;12.90;96.80
4647;DHT22;2336;47.822;7.564;2023-04-24T10:48:31;12.70;96.70
4647;DHT22;2336;47.822;7.564;2023-04-24T10:50:58;12.60;97.00
4647;DHT22;2336;47.822;7.564;2023-04-24T10:53:28;12.50;97.20
4647;DHT22;2336;47.822;7.564;2023-04-24T10:55:58;12.50;97.90
4647;DHT22;2336;47.822;7.564;2023-04-24T10:58:37;12.40;98.30
4647;DHT22;2336;47.822;7.564;2023-04-24T11:01:07;12.40;98.40
4647;DHT22;2336;47.822;7.564;2023-04-24T11:03:34;12.40;98.40
4647;DHT22;2336;47.822;7.564;2023-04-24T11:06:04;12.60;98.70
4647;DHT22;2336;47.822;7.564;2023-04-24T11:08:37;12.80;98.90
4647;DHT22;2336;47.822;7.564;2023-04-24T11:11:09;13.10;99.50
4647;DHT22;2336;47.822;7.564;2023-04-24T11:14:01;13.30;98.70
4647;DHT22;2336;47.822;7.564;2023-04-24T11:16:30;13.60;97.60
4647;DHT22;2336;47.822;7.564;2023-04-24T11:19:03;13.60;96.90
4647;DHT22;2336;47.822;7.564;2023-04-24T11:21:41;13.70;97.50
4647;DHT22;2336;47.822;7.564;2023-04-24T11:24:28;13.90;97.30
4647;DHT22;2336;47.822;7.564;2023-04-24T11:26:58;14.40;97.80
4647;DHT22;2336;47.822;7.564;2023-04-24T11:29:42;14.50;96.70
4647;DHT22;2336;47.822;7.564;2023-04-24T11:32:25;14.60;96.50
4647;DHT22;2336;47.822;7.564;2023-04-24T11:34:53;14.70;95.30
4647;DHT22;2336;47.822;7.564;2023-04-24T11:37:21;14.40;95.30
4647;DHT22;2336;47.822;7.564;2023-04-24T11:39:50;13.90;96.20
4647;DHT22;2336;47.822;7.564;2023-04-24T11:42:18;14.00;96.90
4647;DHT22;2336;47.822;7.564;2023-04-24T11:44:46;14.20;97.30
4647;DHT22;2336;47.822;7.564;2023-04-24T11:47:13;14.10;96.60
4647;DHT22;2336;47.822;7.564;2023-04-24T11:49:42;14.20;97.60
4647;DHT22;2336;47.822;7.564;2023-04-24T11:52:08;14.20;97.80
4647;DHT22;2336;47.822;7.564;2023-04-24T11:54:36;14.10;96.90
4647;DHT22;2336;47.822;7.564;2023-04-24T11:57:04;14.20;96.60
4647;DHT22;2336;47.822;7.564;2023-04-24T11:59:35;14.30;97.00
4647;DHT22;2336;47.822;7.564;2023-04-24T12:02:02;14.70;97.30
4647;DHT22;2336;47.822;7.564;2023-04-24T12:04:38;14.90;96.10
4647;DHT22;2336;47.822;7.564;2023-04-24T12:07:07;15.30;96.70
4647;DHT22;2336;47.822;7.564;2023-04-24T12:09:41;15.60;96.80
4647;DHT22;2336;47.822;7.564;2023-04-24T12:12:08;15.80;95.80
4647;DHT22;2336;47.822;7.564;2023-04-24T12:14:47;15.90;94.40
4647;DHT22;2336;47.822;7.564;2023-04-24T12:17:14;15.90;94.40
4647;DHT22;2336;47.822;7.564;2023-04-24T12:19:45;15.50;94.00
4647;DHT22;2336;47.822;7.564;2023-04-24T12:22:14;15.50;95.00
4647;DHT22;2336;47.822;7.564;2023-04-24T12:25:00;15.40;94.20
4647;DHT22;2336;47.822;7.564;2023-04-24T12:27:30;15.30;95.20
4647;DHT22;2336;47.822;7.564;2023-04-24T12:29:58;15.80;96.00
4647;DHT22;2336;47.822;7.564;2023-04-24T12:32:25;16.10;95.70
4647;DHT22;2336;47.822;7.564;2023-04-24T12:34:52;16.10;95.80
4647;DHT22;2336;47.822;7.564;2023-04-24T12:37:22;16.20;95.70
4647;DHT22;2336;47.822;7.564;2023-04-24T12:39:59;16.20;95.80
4647;DHT22;2336;47.822;7.564;2023-04-24T12:42:27;16.40;94.40
4647;DHT22;2336;47.822;7.564;2023-04-24T12:44:57;16.30;94.50
4647;DHT22;2336;47.822;7.564;2023-04-24T12:47:25;16.60;94.30
4647;DHT22;2336;47.822;7.564;2023-04-24T12:49:51;16.70;94.20
4647;DHT22;2336;47.822;7.564;2023-04-24T12:52:18;16.60;94.80
4647;DHT22;2336;47.822;7.564;2023-04-24T12:54:47;16.60;94.20
4647;DHT22;2336;47.822;7.564;2023-04-24T12:57:14;16.50;94.20
4647;DHT22;2336;47.822;7.564;2023-04-24T12:59:41;16.80;94.30
4647;DHT22;2336;47.822;7.564;2023-04-24T13:02:07;16.80;94.30
4647;DHT22;2336;47.822;7.564;2023-04-24T13:04:35;16.70;94.50
4647;DHT22;2336;47.822;7.564;2023-04-24T13:07:02;16.90;94.80
4647;DHT22;2336;47.822;7.564;2023-04-24T13:09:30;16.40;92.30
4647;DHT22;2336;47.822;7.564;2023-04-24T13:11:58;16.50;93.40
4647;DHT22;2336;47.822;7.564;2023-04-24T13:14:26;16.70;94.10
4647;DHT22;2336;47.822;7.564;2023-04-24T13:16:53;16.70;93.50
4647;DHT22;2336;47.822;7.564;2023-04-24T13:19:19;16.70;93.80
4647;DHT22;2336;47.822;7.564;2023-04-24T13:21:46;16.70;92.90
4647;DHT22;2336;47.822;7.564;2023-04-24T13:24:13;16.00;93.40
4647;DHT22;2336;47.822;7.564;2023-04-24T13:26:41;16.20;94.70
4647;DHT22;2336;47.822;7.564;2023-04-24T13:29:09;16.30;94.00
4647;DHT22;2336;47.822;7.564;2023-04-24T13:31:36;16.20;93.50
4647;DHT22;2336;47.822;7.564;2023-04-24T13:34:03;15.30;95.30
4647;DHT22;2336;47.822;7.564;2023-04-24T13:36:30;15.60;95.30
4647;DHT22;2336;47.822;7.564;2023-04-24T13:38:57;15.60;96.00
4647;DHT22;2336;47.822;7.564;2023-04-24T13:41:23;15.80;95.80
4647;DHT22;2336;47.822;7.564;2023-04-24T13:43:50;15.70;95.30
4647;DHT22;2336;47.822;7.564;2023-04-24T13:46:18;15.80;96.10
4647;DHT22;2336;47.822;7.564;2023-04-24T13:48:45;15.90;96.00
4647;DHT22;2336;47.822;7.564;2023-04-24T13:51:12;15.60;96.70
4647;DHT22;2336;47.822;7.564;2023-04-24T13:53:38;15.80;95.40
4647;DHT22;2336;47.822;7.564;2023-04-24T13:56:05;15.80;95.70
4647;DHT22;2336;47.822;7.564;2023-04-24T13:58:33;15.60;96.10
4647;DHT22;2336;47.822;7.564;2023-04-24T14:00:59;15.20;95.30
4647;DHT22;2336;47.822;7.564;2023-04-24T14:03:28;15.10;95.10
4647;DHT22;2336;47.822;7.564;2023-04-24T14:05:54;14.90;94.80
4647;DHT22;2336;47.822;7.564;2023-04-24T14:08:21;14.80;95.60
4647;DHT22;2336;47.822;7.564;2023-04-24T14:10:49;14.70;94.40
4647;DHT22;2336;47.822;7.564;2023-04-24T14:13:17;14.60;94.90
4647;DHT22;2336;47.822;7.564;2023-04-24T14:15:44;14.50;95.40
4647;DHT22;2336;47.822;7.564;2023-04-24T14:18:11;14.50;95.60
4647;DHT22;2336;47.822;7.564;2023-04-24T14:20:39;14.40;95.60
4647;DHT22;2336;47.822;7.564;2023-04-24T14:23:05;14.50;95.70
4647;DHT22;2336;47.822;7.564;2023-04-24T14:25:32;14.60;95.80
4647;DHT22;2336;47.822;7.564;2023-04-24T14:27:59;14.40;95.10
4647;DHT22;2336;47.822;7.564;2023-04-24T14:30:26;14.50;95.30
4647;DHT22;2336;47.822;7.564;2023-04-24T14:32:52;14.70;95.80
4647;DHT22;2336;47.822;7.564;2023-04-24T14:35:19;14.80;96.00
4647;DHT22;2336;47.822;7.564;2023-04-24T14:37:47;15.00;96.20
4647;DHT22;2336;47.822;7.564;2023-04-24T14:40:15;15.10;96.40
4647;DHT22;2336;47.822;7.564;2023-04-24T14:42:41;15.20;96.70
4647;DHT22;2336;47.822;7.564;2023-04-24T14:45:09;15.30;95.50
4647;DHT22;2336;47.822;7.564;2023-04-24T14:47:36;15.10;96.10
4647;DHT22;2336;47.822;7.564;2023-04-24T14:50:05;14.80;94.80
4647;DHT22;2336;47.822;7.564;2023-04-24T14:52:33;14.70;94.60
4647;DHT22;2336;47.822;7.564;2023-04-24T14:55:01;14.40;94.60
4647;DHT22;2336;47.822;7.564;2023-04-24T14:57:28;14.40;95.50
4647;DHT22;2336;47.822;7.564;2023-04-24T14:59:55;14.30;95.50
4647;DHT22;2336;47.822;7.564;2023-04-24T15:02:22;14.00;95.50
4647;DHT22;2336;47.822;7.564;2023-04-24T15:04:48;14.10;96.50
4647;DHT22;2336;47.822;7.564;2023-04-24T15:07:15;13.90;96.00
4647;DHT22;2336;47.822;7.564;2023-04-24T15:09:42;13.80;95.90
4647;DHT22;2336;47.822;7.564;2023-04-24T15:12:10;13.90;96.60
4647;DHT22;2336;47.822;7.564;2023-04-24T15:14:37;14.00;97.10
4647;DHT22;2336;47.822;7.564;2023-04-24T15:17:04;13.90;96.90
4647;DHT22;2336;47.822;7.564;2023-04-24T15:19:31;14.00;97.00
4647;DHT22;2336;47.822;7.564;2023-04-24T15:21:58;14.10;96.50
4647;DHT22;2336;47.822;7.564;2023-04-24T15:24:25;14.20;97.00
4647;DHT22;2336;47.822;7.564;2023-04-24T15:26:51;14.10;96.40
4647;DHT22;2336;47.822;7.564;2023-04-24T15:29:20;14.10;95.90
4647;DHT22;2336;47.822;7.564;2023-04-24T15:31:47;14.00;96.40
4647;DHT22;2336;47.822;7.564;2023-04-24T15:34:14;14.00;97.10
4647;DHT22;2336;47.822;7.564;2023-04-24T15:36:40;14.10;97.50
4647;DHT22;2336;47.822;7.564;2023-04-24T15:39:07;14.00;97.30
4647;DHT22;2336;47.822;7.564;2023-04-24T15:41:35;13.90;97.60
4647;DHT22;2336;47.822;7.564;2023-04-24T15:44:02;14.10;98.00
4647;DHT22;2336;47.822;7.564;2023-04-24T15:46:30;14.20;97.90
4647;DHT22;2336;47.822;7.564;2023-04-24T15:48:56;14.30;98.40
4647;DHT22;2336;47.822;7.564;2023-04-24T15:51:23;14.30;98.30
4647;DHT22;2336;47.822;7.564;2023-04-24T15:53:50;14.20;98.30
4647;DHT22;2336;47.822;7.564;2023-04-24T15:56:18;14.00;96.70
4647;DHT22;2336;47.822;7.564;2023-04-24T15:58:45;13.90;95.40
4647;DHT22;2336;47.822;7.564;2023-04-24T16:01:12;13.90;96.30
4647;DHT22;2336;47.822;7.564;2023-04-24T16:03:40;13.90;96.00
4647;DHT22;2336;47.822;7.564;2023-04-24T16:06:07;13.90;95.70